createdAt,value
2023-03-07T00:00:13.396Z,37.25
2023-03-07T00:05:17.095Z,25.70
2023-03-07T00:10:20.201Z,28.65
2023-03-07T00:15:24.679Z,29.30
2023-03-07T00:20:27.609Z,27.95
2023-03-07T00:25:30.452Z,29.98
2023-03-07T00:30:34.698Z,25.55
2023-03-07T00:35:37.503Z,24.90
2023-03-07T00:40:40.331Z,26.70
2023-03-07T00:45:44.551Z,25.48
2023-03-07T00:50:48.025Z,24.35
2023-03-07T00:55:59.505Z,20.10
2023-03-07T01:01:04.954Z,29.13
2023-03-07T01:06:10.098Z,18.05
2023-03-07T01:11:14.102Z,26.50
2023-03-07T01:16:20.522Z,24.83
2023-03-07T01:21:24.538Z,17.92
2023-03-07T01:26:29.230Z,28.77
2023-03-07T01:31:33.585Z,23.88
2023-03-07T01:36:38.547Z,22.20
2023-03-07T01:41:42.800Z,17.85
2023-03-07T01:46:53.507Z,28.50
2023-03-07T01:52:04.032Z,18.15
2023-03-07T01:57:07.638Z,24.55
2023-03-07T02:02:17.035Z,18.00
2023-03-07T02:07:23.388Z,20.95
2023-03-07T02:12:26.344Z,23.90
2023-03-07T02:17:31.215Z,19.25
2023-03-07T02:22:35.199Z,20.92
2023-03-07T02:27:40.946Z,23.38
2023-03-07T02:32:44.213Z,18.48
2023-03-07T02:37:50.964Z,22.00
2023-03-07T02:43:01.690Z,17.10
2023-03-07T02:48:05.054Z,21.00
2023-03-07T02:53:08.014Z,22.35
2023-03-07T02:58:12.391Z,17.63
2023-03-07T03:03:15.307Z,24.90
2023-03-07T03:08:18.388Z,29.30
2023-03-07T03:13:22.770Z,18.52
2023-03-07T03:18:28.286Z,25.88
2023-03-07T03:23:31.246Z,22.88
2023-03-07T03:28:35.995Z,27.23
2023-03-07T03:33:39.366Z,21.25
2023-03-07T03:38:42.594Z,35.13
2023-03-07T03:43:47.471Z,22.58
2023-03-07T03:48:55.189Z,27.65
2023-03-07T03:54:01.004Z,28.90
2023-03-07T03:59:05.570Z,23.20
2023-03-07T04:04:08.454Z,22.42
2023-03-07T04:09:12.888Z,18.95
2023-03-07T04:14:19.921Z,22.80
2023-03-07T04:19:22.968Z,24.40
2023-03-07T04:24:26.835Z,29.55
2023-03-07T04:29:31.265Z,25.25
2023-03-07T04:34:39.814Z,26.13
2023-03-07T04:39:42.738Z,25.05
2023-03-07T04:44:48.069Z,22.05
2023-03-07T04:49:50.906Z,30.40
2023-03-07T04:54:53.771Z,10.73
2023-03-07T04:59:58.028Z,16.15
2023-03-07T05:05:01.468Z,11.57
2023-03-07T05:10:04.819Z,9.73
2023-03-07T05:15:10.436Z,7.95
2023-03-07T05:20:13.366Z,6.90
2023-03-07T05:25:17.737Z,9.10
2023-03-07T05:30:22.778Z,9.10
2023-03-07T05:35:25.797Z,7.32
2023-03-07T05:40:30.783Z,8.13
2023-03-07T05:45:35.187Z,10.68
2023-03-07T05:50:38.563Z,10.05
2023-03-07T05:55:41.544Z,7.63
2023-03-07T06:00:46.043Z,11.52
2023-03-07T06:05:50.931Z,4.03
2023-03-07T06:10:55.495Z,4.45
2023-03-07T06:16:00.736Z,5.75
2023-03-07T06:21:06.190Z,6.55
2023-03-07T06:26:14.924Z,2.88
2023-03-07T06:31:21.771Z,5.22
2023-03-07T06:36:24.667Z,2.90
2023-03-07T06:41:34.082Z,6.53
2023-03-07T06:46:40.767Z,6.70
2023-03-07T06:51:49.033Z,5.22
2023-03-07T06:56:53.247Z,7.70
2023-03-07T07:02:02.598Z,3.35
2023-03-07T07:07:07.100Z,7.93
2023-03-07T07:12:10.573Z,11.40
2023-03-07T07:17:15.001Z,9.73
2023-03-07T07:22:18.642Z,6.45
2023-03-07T07:27:21.594Z,5.07
2023-03-07T07:32:26.449Z,7.30
2023-03-07T07:37:29.619Z,9.23
2023-03-07T07:42:32.543Z,8.95
2023-03-07T07:47:54.061Z,6.15
2023-03-07T07:52:58.362Z,9.68
2023-03-07T07:58:01.216Z,6.15
2023-03-07T08:03:05.606Z,7.38
2023-03-07T08:08:08.421Z,5.25
2023-03-07T08:13:13.611Z,5.93
2023-03-07T08:18:17.782Z,5.22
2023-03-07T08:23:20.601Z,4.22
2023-03-07T08:28:23.388Z,5.38
2023-03-07T08:33:27.521Z,4.28
2023-03-07T08:38:30.375Z,3.95
2023-03-07T08:43:34.627Z,3.17
2023-03-07T08:48:38.817Z,4.68
2023-03-07T08:53:43.011Z,3.88
2023-03-07T08:58:46.203Z,5.00
2023-03-07T09:03:50.566Z,4.30
2023-03-07T09:08:53.424Z,5.15
2023-03-07T09:13:56.232Z,3.28
2023-03-07T09:19:00.397Z,3.25
2023-03-07T09:24:04.145Z,3.33
2023-03-07T09:29:06.950Z,3.67
2023-03-07T09:34:11.755Z,5.38
2023-03-07T09:39:15.472Z,3.08
2023-03-07T09:44:24.740Z,3.78
2023-03-07T09:49:55.641Z,8.57
2023-03-07T09:55:01.639Z,4.35
2023-03-07T10:00:12.333Z,5.35
2023-03-07T10:05:28.155Z,4.40
2023-03-07T10:10:37.895Z,3.92
2023-03-07T10:15:46.578Z,4.85
2023-03-07T10:20:54.972Z,4.75
2023-03-07T10:26:03.128Z,8.38
2023-03-07T10:31:16.516Z,5.65
2023-03-07T10:36:23.065Z,7.07
2023-03-07T10:41:25.989Z,8.23
2023-03-07T10:46:31.488Z,11.80
2023-03-07T10:51:50.613Z,6.20
2023-03-07T10:57:08.608Z,5.20
2023-03-07T11:02:31.315Z,6.15
2023-03-07T11:07:37.365Z,4.70
2023-03-07T11:12:47.129Z,3.80
2023-03-07T11:17:51.734Z,4.97
2023-03-07T11:23:15.818Z,6.53
2023-03-07T11:28:31.332Z,3.67
2023-03-07T11:33:58.476Z,3.90
2023-03-07T11:39:12.094Z,5.10
2023-03-07T11:49:40.249Z,3.00
2023-03-07T11:54:55.670Z,2.35
2023-03-07T12:00:23.733Z,2.08
2023-03-07T12:05:39.280Z,2.55
2023-03-07T12:10:55.296Z,3.72
2023-03-07T12:16:08.417Z,3.20
2023-03-07T12:21:24.718Z,4.93
2023-03-07T12:26:37.289Z,4.53
2023-03-07T12:31:44.202Z,4.65
2023-03-07T12:36:51.067Z,2.90
2023-03-07T12:42:03.702Z,5.75
2023-03-07T12:47:16.639Z,2.38
2023-03-07T12:52:30.738Z,1.80
2023-03-07T12:57:41.262Z,4.75
2023-03-07T13:02:48.378Z,5.78
2023-03-07T13:07:51.795Z,4.55
2023-03-07T13:12:56.035Z,5.40
2023-03-07T13:18:00.626Z,7.20
2023-03-07T13:23:29.386Z,3.28
2023-03-07T13:28:36.857Z,3.53
2023-03-07T13:33:39.778Z,5.30
2023-03-07T13:38:44.148Z,3.47
2023-03-07T13:44:01.432Z,4.35
2023-03-07T13:49:04.435Z,2.58
2023-03-07T13:54:12.793Z,4.35
2023-03-07T13:59:24.526Z,4.80
2023-03-07T14:04:39.968Z,6.18
2023-03-07T14:09:47.981Z,7.45
2023-03-07T14:15:06.106Z,8.73
2023-03-07T14:20:18.145Z,12.68
2023-03-07T14:25:25.100Z,9.45
2023-03-07T14:30:32.182Z,4.63
2023-03-07T14:35:37.204Z,7.35
2023-03-07T14:40:53.279Z,4.18
2023-03-07T14:46:06.324Z,5.25
2023-03-07T14:51:15.612Z,7.35
2023-03-07T14:56:22.982Z,10.82
2023-03-07T15:01:31.597Z,6.88
2023-03-07T15:06:43.785Z,3.70
2023-03-07T15:11:52.174Z,4.22
2023-03-07T15:17:01.450Z,4.72
2023-03-07T15:22:07.375Z,5.25
2023-03-07T15:27:15.013Z,6.07
2023-03-07T15:32:34.422Z,6.95
2023-03-07T15:37:51.512Z,4.93
2023-03-07T15:42:56.322Z,4.40
2023-03-07T15:48:03.367Z,7.60
2023-03-07T15:53:09.667Z,4.95
2023-03-07T15:58:15.496Z,7.57
2023-03-07T16:03:26.211Z,19.10
2023-03-07T16:08:29.267Z,17.58
2023-03-07T16:13:34.096Z,10.88
2023-03-07T16:18:38.362Z,8.65
2023-03-07T16:23:41.343Z,4.22
2023-03-07T16:28:45.578Z,5.28
2023-03-07T16:33:50.195Z,6.78
2023-03-07T16:38:53.101Z,12.27
2023-03-07T16:43:57.837Z,12.50
2023-03-07T16:49:02.034Z,8.95
2023-03-07T16:54:04.982Z,9.35
2023-03-07T16:59:08.415Z,12.75
2023-03-07T17:04:12.720Z,20.65
2023-03-07T17:09:15.843Z,13.13
2023-03-07T17:14:20.056Z,10.25
2023-03-07T17:19:27.005Z,16.67
2023-03-07T17:24:31.061Z,8.73
2023-03-07T17:29:39.293Z,7.57
2023-03-07T17:34:43.818Z,10.15
2023-03-07T17:39:46.648Z,5.82
2023-03-07T17:44:49.481Z,7.72
2023-03-07T17:49:53.733Z,6.85
2023-03-07T17:54:56.561Z,6.10
2023-03-07T17:59:59.349Z,7.60
2023-03-07T18:05:03.648Z,11.52
2023-03-07T18:10:08.857Z,7.47
2023-03-07T18:15:14.851Z,10.10
2023-03-07T18:20:21.617Z,13.50
2023-03-07T18:25:25.698Z,9.90
2023-03-07T18:30:28.617Z,20.90
2023-03-07T18:35:37.116Z,14.23
2023-03-07T18:40:40.052Z,9.85
2023-03-07T18:45:43.913Z,6.88
2023-03-07T18:50:56.695Z,8.63
2023-03-07T18:56:03.463Z,7.88
2023-03-07T19:01:14.212Z,11.90
2023-03-07T19:06:20.901Z,9.27
2023-03-07T19:11:23.698Z,10.80
2023-03-07T19:16:28.392Z,7.30
2023-03-07T19:21:32.986Z,8.18
2023-03-07T19:26:35.825Z,8.60
2023-03-07T19:31:38.800Z,12.93
2023-03-07T19:36:43.108Z,10.82
2023-03-07T19:41:47.925Z,12.10
2023-03-07T19:46:50.740Z,7.95
2023-03-07T19:51:54.916Z,10.68
2023-03-07T19:56:57.771Z,8.63
2023-03-07T20:02:00.546Z,7.45
2023-03-07T20:07:04.742Z,8.55
2023-03-07T20:12:10.008Z,6.60
2023-03-07T20:17:13.336Z,6.97
2023-03-07T20:22:18.176Z,10.77
2023-03-07T20:27:23.356Z,10.05
2023-03-07T20:32:26.215Z,9.43
2023-03-07T20:37:32.452Z,10.13
2023-03-07T20:42:35.205Z,11.43
2023-03-07T20:47:38.436Z,13.70
2023-03-07T20:52:42.681Z,12.15
2023-03-07T20:57:45.925Z,11.05
2023-03-07T21:03:00.068Z,11.48
2023-03-07T21:08:09.908Z,13.32
2023-03-07T21:13:13.259Z,14.30
2023-03-07T21:18:16.057Z,16.50
2023-03-07T21:23:20.214Z,12.02
2023-03-07T21:28:22.872Z,14.93
2023-03-07T21:33:25.577Z,10.75
2023-03-07T21:38:30.990Z,15.60
2023-03-07T21:43:33.814Z,14.35
2023-03-07T21:48:37.228Z,12.50
2023-03-07T21:53:41.321Z,16.27
2023-03-07T21:58:44.606Z,11.85
2023-03-07T22:03:48.119Z,18.38
2023-03-07T22:08:52.533Z,13.23
2023-03-07T22:13:55.323Z,11.23
2023-03-07T22:18:58.456Z,12.27
2023-03-07T22:24:02.506Z,13.25
2023-03-07T22:29:05.868Z,14.90
2023-03-07T22:34:08.599Z,13.02
2023-03-07T22:39:12.671Z,11.68
2023-03-07T22:44:15.920Z,18.00
2023-03-07T22:49:18.706Z,10.63
2023-03-07T22:54:22.911Z,14.48
2023-03-07T22:59:25.645Z,12.82
2023-03-07T23:04:30.473Z,15.38
2023-03-07T23:09:34.907Z,15.52
2023-03-07T23:14:38.564Z,13.27
2023-03-07T23:19:41.311Z,12.65
2023-03-07T23:24:45.507Z,12.73
2023-03-07T23:29:48.331Z,16.27
2023-03-07T23:34:51.148Z,13.45
2023-03-07T23:39:55.238Z,11.95
2023-03-07T23:44:58.062Z,14.35
2023-03-07T23:50:00.908Z,15.95
2023-03-07T23:55:05.329Z,13.35
